createdAt,value
2023-08-28T00:00:31.362Z,98482.59
2023-08-28T00:03:34.645Z,98482.72
2023-08-28T00:06:39.289Z,98494.69
2023-08-28T00:09:42.530Z,98491.69
2023-08-28T00:12:46.452Z,98487.69
2023-08-28T00:15:49.717Z,98502.09
2023-08-28T00:18:53.014Z,98499.41
2023-08-28T00:21:58.207Z,98488.50
2023-08-28T00:25:01.420Z,98482.63
2023-08-28T00:28:04.866Z,98496.72
2023-08-28T00:31:08.140Z,98507.66
2023-08-28T00:34:11.626Z,98521.28
2023-08-28T00:37:17.245Z,98512.69
2023-08-28T00:40:20.709Z,98506.28
2023-08-28T00:43:24.130Z,98492.25
2023-08-28T00:46:28.145Z,98480.34
2023-08-28T00:49:32.430Z,98475.94
2023-08-28T00:52:37.338Z,98476.97
2023-08-28T00:55:40.575Z,98493.09
2023-08-28T00:58:43.880Z,98487.41
2023-08-28T01:01:47.303Z,98481.88
2023-08-28T01:04:50.612Z,98486.88
2023-08-28T01:07:59.915Z,98488.44
2023-08-28T01:11:12.907Z,98479.84
2023-08-28T01:14:24.128Z,98478.81
2023-08-28T01:17:29.000Z,98494.44
2023-08-28T01:20:35.440Z,98500.91
2023-08-28T01:23:46.451Z,98516.06
2023-08-28T01:26:51.797Z,98525.09
2023-08-28T01:30:12.356Z,98528.31
2023-08-28T01:33:17.053Z,98521.28
2023-08-28T01:36:25.690Z,98519.00
2023-08-28T01:39:38.777Z,98515.13
2023-08-28T01:42:45.719Z,98507.53
2023-08-28T01:45:51.600Z,98505.41
2023-08-28T01:48:55.108Z,98493.78
2023-08-28T01:52:00.028Z,98498.84
2023-08-28T01:55:03.820Z,98513.03
2023-08-28T01:58:08.467Z,98527.69
2023-08-28T02:01:12.233Z,98536.06
2023-08-28T02:04:15.776Z,98528.69
2023-08-28T02:07:19.032Z,98523.13
2023-08-28T02:10:23.219Z,98529.50
2023-08-28T02:13:28.418Z,98536.84
2023-08-28T02:16:31.746Z,98542.38
2023-08-28T02:19:35.072Z,98546.59
2023-08-28T02:22:38.427Z,98549.09
2023-08-28T02:25:42.905Z,98551.28
2023-08-28T02:28:48.576Z,98556.28
2023-08-28T02:31:51.823Z,98569.94
2023-08-28T02:34:55.034Z,98552.47
2023-08-28T02:37:58.887Z,98542.88
2023-08-28T02:41:06.869Z,98545.47
2023-08-28T02:44:11.438Z,98549.63
2023-08-28T02:47:16.494Z,98554.81
2023-08-28T02:50:19.806Z,98553.66
2023-08-28T02:53:23.059Z,98539.19
2023-08-28T02:56:27.882Z,98553.09
2023-08-28T02:59:32.910Z,98563.00
2023-08-28T03:02:36.439Z,98573.19
2023-08-28T03:05:39.790Z,98575.44
2023-08-28T03:08:43.083Z,98571.72
2023-08-28T03:11:46.417Z,98555.81
2023-08-28T03:14:50.980Z,98553.13
2023-08-28T03:17:54.418Z,98548.22
2023-08-28T03:20:57.695Z,98541.41
2023-08-28T03:24:01.006Z,98567.94
2023-08-28T03:27:04.243Z,98569.16
2023-08-28T03:30:10.756Z,98562.66
2023-08-28T03:33:14.042Z,98565.84
2023-08-28T03:36:17.302Z,98572.09
2023-08-28T03:39:20.528Z,98581.75
2023-08-28T03:42:23.761Z,98584.59
2023-08-28T03:45:29.144Z,98591.66
2023-08-28T03:48:32.529Z,98584.91
2023-08-28T03:51:35.801Z,98597.50
2023-08-28T03:54:39.134Z,98599.00
2023-08-28T03:57:42.397Z,98602.47
2023-08-28T04:00:47.036Z,98613.38
2023-08-28T04:03:50.331Z,98610.19
2023-08-28T04:06:53.742Z,98611.19
2023-08-28T04:09:56.945Z,98598.06
2023-08-28T04:13:00.320Z,98605.50
2023-08-28T04:16:06.989Z,98605.81
2023-08-28T04:19:10.308Z,98603.97
2023-08-28T04:22:13.632Z,98611.53
2023-08-28T04:25:17.100Z,98612.44
2023-08-28T04:28:21.096Z,98618.88
2023-08-28T04:31:25.951Z,98615.28
2023-08-28T04:34:29.224Z,98617.13
2023-08-28T04:37:32.566Z,98620.50
2023-08-28T04:40:35.848Z,98615.19
2023-08-28T04:43:39.061Z,98602.41
2023-08-28T04:46:43.849Z,98605.59
2023-08-28T04:49:47.108Z,98613.56
2023-08-28T04:52:52.214Z,98613.75
2023-08-28T04:55:56.364Z,98607.91
2023-08-28T04:59:00.116Z,98614.31
2023-08-28T05:02:04.866Z,98613.84
2023-08-28T05:05:09.160Z,98616.63
2023-08-28T05:08:12.453Z,98617.72
2023-08-28T05:11:15.655Z,98618.06
2023-08-28T05:14:19.329Z,98617.47
2023-08-28T05:17:23.964Z,98617.22
2023-08-28T05:20:27.292Z,98619.94
2023-08-28T05:23:30.605Z,98623.41
2023-08-28T05:26:33.901Z,98623.81
2023-08-28T05:29:37.217Z,98621.75
2023-08-28T05:32:41.898Z,98611.47
2023-08-28T05:35:45.611Z,98611.31
2023-08-28T05:38:48.855Z,98606.94
2023-08-28T05:41:53.040Z,98611.69
2023-08-28T05:44:56.408Z,98600.13
2023-08-28T05:48:01.194Z,98591.84
2023-08-28T05:51:04.851Z,98597.91
2023-08-28T05:54:08.534Z,98598.44
2023-08-28T05:57:11.815Z,98609.13
2023-08-28T06:00:16.248Z,98618.44
2023-08-28T06:03:21.397Z,98617.00
2023-08-28T06:06:24.980Z,98614.66
2023-08-28T06:09:28.844Z,98618.28
2023-08-28T06:12:32.162Z,98615.13
2023-08-28T06:15:35.647Z,98630.44
2023-08-28T06:18:40.250Z,98637.66
2023-08-28T06:21:46.338Z,98647.44
2023-08-28T06:24:54.033Z,98649.13
2023-08-28T06:27:57.540Z,98655.75
2023-08-28T06:31:00.947Z,98654.16
2023-08-28T06:34:05.661Z,98645.31
2023-08-28T06:37:08.948Z,98641.81
2023-08-28T06:40:12.573Z,98638.78
2023-08-28T06:43:15.768Z,98633.84
2023-08-28T06:46:19.588Z,98635.34
2023-08-28T06:49:24.204Z,98624.97
2023-08-28T06:52:27.676Z,98608.31
2023-08-28T06:55:30.944Z,98588.44
2023-08-28T06:58:34.617Z,98584.00
2023-08-28T07:01:37.830Z,98582.50
2023-08-28T07:04:42.523Z,98581.34
2023-08-28T07:07:45.885Z,98595.66
2023-08-28T07:10:49.216Z,98603.91
2023-08-28T07:13:52.468Z,98606.25
2023-08-28T07:16:56.149Z,98602.72
2023-08-28T07:20:00.831Z,98597.66
2023-08-28T07:23:04.876Z,98596.50
2023-08-28T07:26:08.887Z,98575.47
2023-08-28T07:29:12.288Z,98544.69
2023-08-28T07:32:15.714Z,98547.69
2023-08-28T07:35:20.429Z,98550.72
2023-08-28T07:38:23.729Z,98542.34
2023-08-28T07:41:27.016Z,98558.31
2023-08-28T07:44:30.295Z,98563.69
2023-08-28T07:47:33.585Z,98579.50
2023-08-28T07:50:38.183Z,98599.03
2023-08-28T07:53:41.575Z,98603.91
2023-08-28T07:56:44.844Z,98603.38
2023-08-28T07:59:48.220Z,98614.66
2023-08-28T08:02:52.799Z,98629.00
2023-08-28T08:05:57.736Z,98630.00
2023-08-28T08:09:00.927Z,98646.69
2023-08-28T08:12:05.233Z,98646.66
2023-08-28T08:15:09.910Z,98640.75
2023-08-28T08:18:13.188Z,98652.00
2023-08-28T08:21:18.024Z,98670.34
2023-08-28T08:24:21.289Z,98654.03
2023-08-28T08:27:26.456Z,98640.75
2023-08-28T08:30:31.602Z,98634.72
2023-08-28T08:33:34.910Z,98631.50
2023-08-28T08:36:40.678Z,98639.06
2023-08-28T08:39:44.241Z,98659.91
2023-08-28T08:42:47.819Z,98662.91
2023-08-28T08:45:54.478Z,98658.69
2023-08-28T08:49:02.795Z,98643.91
2023-08-28T08:52:10.993Z,98636.19
2023-08-28T08:55:22.252Z,98631.47
2023-08-28T08:58:27.895Z,98629.63
2023-08-28T09:01:32.704Z,98613.00
2023-08-28T09:04:37.216Z,98605.25
2023-08-28T09:07:41.921Z,98586.06
2023-08-28T09:10:47.450Z,98589.59
2023-08-28T09:13:50.899Z,98589.28
2023-08-28T09:16:54.183Z,98603.22
2023-08-28T09:19:57.494Z,98604.91
2023-08-28T09:23:03.224Z,98590.28
2023-08-28T09:26:06.710Z,98569.91
2023-08-28T09:29:11.124Z,98583.34
2023-08-28T09:32:14.818Z,98599.69
2023-08-28T09:35:18.153Z,98617.06
2023-08-28T09:38:22.998Z,98612.00
2023-08-28T09:41:37.758Z,98597.16
2023-08-28T09:44:40.957Z,98578.16
2023-08-28T09:47:45.313Z,98593.09
2023-08-28T09:50:53.994Z,98603.28
2023-08-28T09:54:02.838Z,98597.53
2023-08-28T09:57:16.741Z,98603.00
2023-08-28T10:00:20.428Z,98601.66
2023-08-28T10:03:25.776Z,98594.34
2023-08-28T10:06:31.083Z,98597.19
2023-08-28T10:09:36.895Z,98598.91
2023-08-28T10:12:42.909Z,98598.50
2023-08-28T10:15:53.438Z,98606.84
2023-08-28T10:19:01.997Z,98599.81
2023-08-28T10:22:09.273Z,98582.81
2023-08-28T10:25:15.804Z,98585.22
2023-08-28T10:28:20.759Z,98571.97
2023-08-28T10:31:25.399Z,98576.44
2023-08-28T10:34:30.430Z,98582.47
2023-08-28T10:37:34.544Z,98565.31
2023-08-28T10:40:39.610Z,98557.69
2023-08-28T10:43:43.915Z,98548.84
2023-08-28T10:46:48.881Z,98556.44
2023-08-28T10:49:55.751Z,98542.19
2023-08-28T10:53:00.723Z,98557.38
2023-08-28T10:56:07.473Z,98552.31
2023-08-28T10:59:32.035Z,98552.16
2023-08-28T11:03:09.986Z,98558.78
2023-08-28T11:06:40.557Z,98552.13
2023-08-28T11:09:44.194Z,98555.34
2023-08-28T11:12:57.634Z,98568.03
2023-08-28T11:16:05.731Z,98565.56
2023-08-28T11:19:09.242Z,98552.63
2023-08-28T11:22:13.154Z,98555.06
2023-08-28T11:25:41.716Z,98563.63
2023-08-28T11:28:47.573Z,98579.38
2023-08-28T11:31:52.104Z,98577.72
2023-08-28T11:34:55.332Z,98565.44
2023-08-28T11:37:58.536Z,98560.94
2023-08-28T11:41:05.771Z,98560.97
2023-08-28T11:44:14.438Z,98553.50
2023-08-28T11:47:17.743Z,98546.22
2023-08-28T11:50:21.136Z,98555.94
2023-08-28T11:53:30.969Z,98528.50
2023-08-28T11:56:36.428Z,98519.84
2023-08-28T11:59:42.855Z,98529.31
2023-08-28T12:02:50.198Z,98529.00
2023-08-28T12:06:02.727Z,98510.66
2023-08-28T12:09:06.245Z,98504.50
2023-08-28T12:12:09.637Z,98502.06
2023-08-28T12:15:14.232Z,98503.03
2023-08-28T12:18:17.550Z,98505.44
2023-08-28T12:21:34.642Z,98506.63
2023-08-28T12:24:41.911Z,98508.84
2023-08-28T12:27:47.610Z,98500.56
2023-08-28T12:30:55.127Z,98509.69
2023-08-28T12:33:58.609Z,98517.28
2023-08-28T12:37:09.298Z,98511.34
2023-08-28T12:40:13.568Z,98504.97
2023-08-28T12:43:17.430Z,98506.09
2023-08-28T12:46:22.330Z,98499.25
2023-08-28T12:49:25.822Z,98505.00
2023-08-28T12:52:31.387Z,98489.97
2023-08-28T12:55:34.954Z,98493.81
2023-08-28T12:58:38.263Z,98488.88
2023-08-28T13:01:43.915Z,98496.72
2023-08-28T13:04:47.428Z,98497.47
2023-08-28T13:07:50.810Z,98495.16
2023-08-28T13:10:54.231Z,98489.25
2023-08-28T13:13:57.541Z,98499.78
2023-08-28T13:17:02.145Z,98499.84
2023-08-28T13:20:06.123Z,98494.69
2023-08-28T13:23:09.385Z,98499.47
2023-08-28T13:26:12.684Z,98496.00
2023-08-28T13:29:16.218Z,98489.41
2023-08-28T13:32:21.044Z,98493.34
2023-08-28T13:35:25.583Z,98489.84
2023-08-28T13:38:28.869Z,98488.84
2023-08-28T13:41:32.772Z,98486.97
2023-08-28T13:44:37.260Z,98480.03
2023-08-28T13:47:42.399Z,98483.72
2023-08-28T13:50:45.702Z,98495.94
2023-08-28T13:53:49.138Z,98497.44
2023-08-28T13:56:52.421Z,98478.75
2023-08-28T13:59:55.655Z,98490.56
2023-08-28T14:03:00.423Z,98495.06
2023-08-28T14:06:04.257Z,98495.75
2023-08-28T14:09:08.085Z,98489.44
2023-08-28T14:12:11.304Z,98483.16
2023-08-28T14:15:14.914Z,98474.97
2023-08-28T14:18:22.302Z,98470.53
2023-08-28T14:21:25.833Z,98474.25
2023-08-28T14:24:29.205Z,98467.13
2023-08-28T14:27:46.463Z,98464.06
2023-08-28T14:30:56.312Z,98470.19
2023-08-28T14:34:02.241Z,98467.44
2023-08-28T14:37:05.998Z,98472.94
2023-08-28T14:40:10.922Z,98470.75
2023-08-28T14:43:14.108Z,98472.66
2023-08-28T14:46:17.437Z,98478.19
2023-08-28T14:49:25.217Z,98482.38
2023-08-28T14:52:28.567Z,98485.81
2023-08-28T14:55:31.794Z,98489.50
2023-08-28T14:58:35.089Z,98477.53
2023-08-28T15:01:38.493Z,98466.06
2023-08-28T15:04:43.128Z,98443.28
2023-08-28T15:07:46.344Z,98440.63
2023-08-28T15:10:51.138Z,98429.63
2023-08-28T15:13:54.419Z,98426.06
2023-08-28T15:16:57.875Z,98438.78
2023-08-28T15:20:03.078Z,98432.09
2023-08-28T15:23:09.761Z,98428.44
2023-08-28T15:26:16.990Z,98435.25
2023-08-28T15:29:21.996Z,98434.50
2023-08-28T15:32:27.181Z,98441.09
2023-08-28T15:35:32.879Z,98443.94
2023-08-28T15:38:36.068Z,98441.94
2023-08-28T15:41:39.304Z,98436.56
2023-08-28T15:44:42.611Z,98440.31
2023-08-28T15:47:47.611Z,98445.72
2023-08-28T15:50:52.347Z,98447.41
2023-08-28T15:53:55.584Z,98445.72
2023-08-28T15:56:58.806Z,98446.72
2023-08-28T16:00:02.028Z,98460.16
2023-08-28T16:03:09.275Z,98449.59
2023-08-28T16:06:13.910Z,98455.31
2023-08-28T16:09:17.253Z,98453.22
2023-08-28T16:12:20.517Z,98459.84
2023-08-28T16:15:24.195Z,98456.84
2023-08-28T16:18:27.479Z,98459.97
2023-08-28T16:21:35.962Z,98456.97
2023-08-28T16:24:39.220Z,98450.78
2023-08-28T16:27:45.225Z,98451.28
2023-08-28T16:30:49.305Z,98442.69
2023-08-28T16:33:52.737Z,98438.66
2023-08-28T16:36:57.400Z,98447.06
2023-08-28T16:40:00.697Z,98442.06
2023-08-28T16:43:04.319Z,98432.28
2023-08-28T16:46:07.779Z,98433.97
2023-08-28T16:49:10.971Z,98433.59
2023-08-28T16:52:15.588Z,98425.53
2023-08-28T16:55:18.981Z,98422.66
2023-08-28T16:58:22.432Z,98419.13
2023-08-28T17:01:25.710Z,98416.81
2023-08-28T17:04:29.137Z,98420.38
2023-08-28T17:07:33.854Z,98437.78
2023-08-28T17:10:37.124Z,98433.78
2023-08-28T17:13:40.358Z,98429.72
2023-08-28T17:16:43.762Z,98423.41
2023-08-28T17:19:46.981Z,98423.34
2023-08-28T17:22:51.603Z,98420.03
2023-08-28T17:25:54.886Z,98421.88
2023-08-28T17:28:59.047Z,98426.94
2023-08-28T17:32:02.366Z,98418.22
2023-08-28T17:35:06.227Z,98420.53
2023-08-28T17:38:10.828Z,98429.81
2023-08-28T17:41:14.091Z,98416.72
2023-08-28T17:44:17.719Z,98429.97
2023-08-28T17:47:20.917Z,98419.22
2023-08-28T17:50:24.779Z,98416.53
2023-08-28T17:53:29.360Z,98404.94
2023-08-28T17:56:35.875Z,98389.81
2023-08-28T17:59:39.139Z,98390.13
2023-08-28T18:02:59.849Z,98390.53
2023-08-28T18:06:05.606Z,98383.59
2023-08-28T18:09:10.478Z,98395.72
2023-08-28T18:12:14.047Z,98385.59
2023-08-28T18:15:18.371Z,98387.44
2023-08-28T18:18:21.763Z,98393.19
2023-08-28T18:21:25.707Z,98393.03
2023-08-28T18:24:30.977Z,98386.28
2023-08-28T18:27:37.972Z,98378.19
2023-08-28T18:30:47.347Z,98364.06
2023-08-28T18:33:50.844Z,98367.59
2023-08-28T18:36:54.198Z,98367.78
2023-08-28T18:39:59.295Z,98370.47
2023-08-28T18:43:04.826Z,98369.31
2023-08-28T18:46:10.850Z,98368.59
2023-08-28T18:49:14.292Z,98357.50
2023-08-28T18:52:21.851Z,98362.41
2023-08-28T18:55:32.852Z,98349.09
2023-08-28T18:58:36.678Z,98332.66
2023-08-28T19:01:39.971Z,98329.59
2023-08-28T19:04:43.328Z,98327.28
2023-08-28T19:07:46.605Z,98323.06
2023-08-28T19:10:51.226Z,98315.38
2023-08-28T19:13:54.504Z,98312.69
2023-08-28T19:16:57.809Z,98303.78
2023-08-28T19:20:02.494Z,98299.19
2023-08-28T19:23:06.187Z,98309.47
2023-08-28T19:26:11.128Z,98303.56
2023-08-28T19:29:14.425Z,98298.63
2023-08-28T19:32:18.044Z,98297.00
2023-08-28T19:35:21.996Z,98295.94
2023-08-28T19:38:25.220Z,98294.09
2023-08-28T19:41:29.862Z,98299.78
2023-08-28T19:44:33.169Z,98294.91
2023-08-28T19:47:36.722Z,98291.91
2023-08-28T19:50:39.979Z,98286.59
2023-08-28T19:53:43.771Z,98272.09
2023-08-28T19:56:48.537Z,98271.13
2023-08-28T19:59:51.867Z,98261.44
2023-08-28T20:02:55.368Z,98256.31
2023-08-28T20:06:03.127Z,98253.91
2023-08-28T20:09:07.262Z,98248.06
2023-08-28T20:12:13.799Z,98237.09
2023-08-28T20:15:18.098Z,98243.66
2023-08-28T20:18:23.823Z,98242.66
2023-08-28T20:21:27.832Z,98228.81
2023-08-28T20:24:33.071Z,98212.75
2023-08-28T20:27:39.389Z,98215.31
2023-08-28T20:30:45.047Z,98214.13
2023-08-28T20:33:48.278Z,98204.41
2023-08-28T20:36:51.704Z,98194.16
2023-08-28T20:39:54.993Z,98189.22
2023-08-28T20:42:59.632Z,98181.72
2023-08-28T20:46:03.634Z,98184.50
2023-08-28T20:49:07.334Z,98185.06
2023-08-28T20:52:11.416Z,98188.91
2023-08-28T20:55:14.796Z,98195.50
2023-08-28T20:58:19.483Z,98195.28
2023-08-28T21:01:23.279Z,98192.09
2023-08-28T21:04:26.496Z,98187.28
2023-08-28T21:07:29.720Z,98187.38
2023-08-28T21:10:34.659Z,98174.38
2023-08-28T21:13:39.481Z,98176.34
2023-08-28T21:16:42.859Z,98186.06
2023-08-28T21:19:46.102Z,98189.22
2023-08-28T21:22:51.213Z,98187.19
2023-08-28T21:25:58.681Z,98180.13
2023-08-28T21:29:03.361Z,98170.56
2023-08-28T21:32:08.368Z,98173.91
2023-08-28T21:35:11.732Z,98194.72
2023-08-28T21:38:15.046Z,98192.56
2023-08-28T21:41:18.304Z,98200.47
2023-08-28T21:44:22.963Z,98209.38
2023-08-28T21:47:26.462Z,98216.56
2023-08-28T21:50:48.862Z,98221.69
2023-08-28T21:54:10.932Z,98220.66
2023-08-28T21:57:33.014Z,98213.63
2023-08-28T22:00:57.367Z,98207.63
2023-08-28T22:04:19.190Z,98217.88
2023-08-28T22:07:40.872Z,98224.25
2023-08-28T22:11:04.712Z,98224.78
2023-08-28T22:14:22.607Z,98221.75
2023-08-28T22:17:27.878Z,98227.47
2023-08-28T22:20:31.492Z,98219.91
2023-08-28T22:23:34.809Z,98222.41
2023-08-28T22:26:38.173Z,98220.38
2023-08-28T22:29:41.518Z,98228.41
2023-08-28T22:32:47.215Z,98224.88
